Isanti, MN (55040)

06:31 PM CST del 09 Febbraio 2016 (GMT -0600)
5 Mi SW of Cambridge on Rum River | | Change Station
CLOSE
Current Station
Stazione meteo personale
Location: Cambridge, MN
Altitudine: 935 ft
Stazioni meteo nelle vicinanze

Alt. 935 ft 45.52 °N, 93.27 °W | Updated 5 seconds ago

Sereno
Sereno
10.2 °F
Sembra 10 °F
N
2.0
Vento Variabile Vento da Nord
Gusts 8.0 mph

Oggi
Massima -- | Minima -- °F
--% Possibilità di precip.
Ieri
Massima -- | Minima -- °F
Precip. -- in
Pressione 30.12 in
Visibilità 10.0 miglia
Nuvole Sereno
Raffreddamento del vento 10 °F
Punto di rugiada -0 °F
Umidità 62%
Piovosità 0.00 in
Spessore del manto nevoso Non disponibile.
7:24 AM 5:30 PM
Luna crescente, 3% visible
METAR KCBG 100015Z AUTO 34004KT 10SM CLR M11/M18 A3012 RMK AO2
Pressione 30.12 in
Visibilità 10.0 miglia
Nuvole Sereno
Raffreddamento del vento 10 °F
Punto di rugiada -0 °F
Umidità 62%
Piovosità 0.00 in
Spessore del manto nevoso Non disponibile.
7:24 AM 5:30 PM
Luna crescente, 3% visible
METAR KCBG 100015Z AUTO 34004KT 10SM CLR M11/M18 A3012 RMK AO2

10-Day Weather Forecast

Almanac

Astronomia

Feb. 09, 2016 Alba Tramonto
Ora attuale
Crepuscolo civile
Crepuscolo nautico
Crepuscolo astronomico
Luna
Estensione della luce visibile
Lunghezza del giorno
Tomorrow will be .
, % of the Moon is Illuminated

Gli estremi di oggi

State Highs State Lows

Community

WunderPhotos

Upload Photos

1,891,751 foto caricate!

WunderBlog® & News

Nearby

Qualità dell'aria

  Qualità dell'aria Indice AQ Inquinante
Not available.

Profondità neve

Stazione Profondità Altitudine

Attività sismica

Città  Distanza Mag. Data & Ora
Minimo Magnitudo Mostrato è 2.5.

Temperature delle acque costiere

Località Temperatura

Stations

Stazioni meteo nelle vicinanze

Ubicazione della stazione Temp. Raffreddamento del vento Punto di rugiada Umidità Vento Precip. Alt. Aggiornato Tipo
                   

Watches & Warnings

There are currently no watches in effect.